Time;durP1;ratioP1;P1;durP2;ratioP2;P2;SDS_P1;SDS_P2;PMS_P1;PMS_P2;Temp;Humidity;BMP_temperature;BMP_pressure;BME280_temperature;BME280_humidity;BME280_pressure;Samples;Min_cycle;Max_cycle;Signal;HPM_P1;HPM_P2
2023/06/28 00:01:15;;;;;;;6.63;2.45;;;;;;;;;;5028778;28;20561;-60
2023/06/28 00:03:42;;;;;;;5.93;2.00;;;;;;;;;;5025714;28;20044;-60
2023/06/28 00:06:08;;;;;;;5.90;3.30;;;;;;;;;;5026005;28;20048;-59
2023/06/28 00:08:34;;;;;;;7.13;2.80;;;;;;;;;;5024104;28;20061;-60
2023/06/28 00:11:00;;;;;;;5.18;2.35;;;;;;;;;;5027328;28;20033;-60
2023/06/28 00:13:26;;;;;;;6.50;2.53;;;;;;;;;;5022848;28;20041;-60
2023/06/28 00:15:52;;;;;;;3.28;2.50;;;;;;;;;;5038496;28;20447;-60
2023/06/28 00:18:18;;;;;;;4.95;2.70;;;;;;;;;;5019506;28;20081;-61
2023/06/28 00:20:45;;;;;;;6.22;2.53;;;;;;;;;;5024918;28;20081;-60
2023/06/28 00:23:11;;;;;;;6.38;2.30;;;;;;;;;;5025652;28;20498;-60
2023/06/28 00:25:37;;;;;;;4.57;2.47;;;;;;;;;;5027580;28;20107;-60
2023/06/28 00:28:04;;;;;;;3.88;2.33;;;;;;;;;;5023660;28;20033;-60
2023/06/28 00:30:31;;;;;;;7.30;2.45;;;;;;;;;;5023628;28;20124;-60
2023/06/28 00:32:57;;;;;;;4.07;2.35;;;;;;;;;;5025398;28;20075;-61
2023/06/28 00:35:23;;;;;;;7.93;2.65;;;;;;;;;;5027029;28;20125;-60
2023/06/28 00:37:49;;;;;;;8.88;2.65;;;;;;;;;;5022913;28;20048;-61
2023/06/28 00:40:15;;;;;;;5.57;2.33;;;;;;;;;;5021036;28;20496;-60
2023/06/28 00:42:41;;;;;;;7.28;3.17;;;;;;;;;;5025016;28;20041;-60
2023/06/28 00:45:11;;;;;;;5.68;2.50;;;;;;;;;;5019201;28;20143;-60
2023/06/28 00:47:37;;;;;;;4.93;2.40;;;;;;;;;;5027956;28;20045;-61
2023/06/28 00:50:04;;;;;;;5.28;2.58;;;;;;;;;;5026912;28;20065;-61
2023/06/28 00:52:30;;;;;;;6.40;2.70;;;;;;;;;;5027376;28;20037;-60
2023/06/28 00:54:57;;;;;;;7.93;2.63;;;;;;;;;;5027409;28;20037;-61
2023/06/28 00:57:23;;;;;;;3.78;2.55;;;;;;;;;;5039822;28;20070;-60
2023/06/28 00:59:51;;;;;;;5.57;2.55;;;;;;;;;;5011759;28;20042;-60
2023/06/28 01:02:17;;;;;;;5.18;2.38;;;;;;;;;;5026912;28;20087;-60
2023/06/28 01:04:43;;;;;;;4.82;2.50;;;;;;;;;;5024334;28;20091;-60
2023/06/28 01:07:11;;;;;;;6.40;2.75;;;;;;;;;;5023997;28;20236;-61
2023/06/28 01:09:37;;;;;;;6.10;2.55;;;;;;;;;;5024373;28;20075;-60
2023/06/28 01:12:03;;;;;;;6.63;2.13;;;;;;;;;;5025630;28;20712;-60
2023/06/28 01:14:30;;;;;;;5.10;2.40;;;;;;;;;;5022716;28;20064;-60
2023/06/28 01:16:56;;;;;;;5.28;2.67;;;;;;;;;;5018261;28;20092;-60
2023/06/28 01:19:23;;;;;;;14.82;3.03;;;;;;;;;;5025723;28;20214;-61
2023/06/28 01:21:51;;;;;;;8.23;2.58;;;;;;;;;;5023504;28;20380;-60
2023/06/28 01:24:20;;;;;;;6.65;2.40;;;;;;;;;;5030428;28;20561;-60
2023/06/28 01:26:51;;;;;;;5.75;2.50;;;;;;;;;;5024271;28;20037;-60
2023/06/28 01:29:18;;;;;;;3.75;2.55;;;;;;;;;;5018505;28;20041;-60
2023/06/28 01:31:44;;;;;;;4.90;2.30;;;;;;;;;;5023633;28;20041;-60
2023/06/28 01:34:10;;;;;;;5.65;2.60;;;;;;;;;;5026538;28;20029;-60
2023/06/28 01:36:36;;;;;;;6.97;2.75;;;;;;;;;;5024616;28;20040;-60
2023/06/28 01:39:02;;;;;;;7.30;2.58;;;;;;;;;;5026258;28;20499;-60
2023/06/28 01:41:29;;;;;;;3.70;2.45;;;;;;;;;;5020847;28;20037;-59
2023/06/28 01:43:55;;;;;;;4.10;2.75;;;;;;;;;;5028121;28;20530;-59
2023/06/28 01:46:21;;;;;;;8.82;2.50;;;;;;;;;;5029353;28;20041;-60
2023/06/28 01:48:48;;;;;;;9.70;2.85;;;;;;;;;;5023444;28;20507;-60
2023/06/28 01:51:15;;;;;;;5.10;2.35;;;;;;;;;;5023825;28;20502;-61
2023/06/28 01:53:41;;;;;;;7.43;2.80;;;;;;;;;;5024209;28;20045;-60
2023/06/28 01:56:07;;;;;;;5.50;2.78;;;;;;;;;;5028583;28;20511;-60
2023/06/28 01:58:33;;;;;;;6.95;3.05;;;;;;;;;;5020603;28;20153;-60
2023/06/28 02:01:00;;;;;;;8.13;3.13;;;;;;;;;;5023628;28;20591;-60
2023/06/28 02:03:26;;;;;;;12.73;2.92;;;;;;;;;;5022536;28;20041;-60
2023/06/28 02:05:52;;;;;;;6.57;2.90;;;;;;;;;;5024405;28;20116;-60
2023/06/28 02:08:18;;;;;;;5.35;3.08;;;;;;;;;;5024734;28;20053;-60
2023/06/28 02:10:44;;;;;;;4.75;3.22;;;;;;;;;;5024377;28;20477;-60
2023/06/28 02:13:10;;;;;;;5.72;2.75;;;;;;;;;;5020142;28;20095;-60
2023/06/28 02:15:36;;;;;;;4.82;2.40;;;;;;;;;;5027092;28;20041;-60
2023/06/28 02:18:03;;;;;;;5.72;2.67;;;;;;;;;;5024089;28;20044;-60
2023/06/28 02:20:29;;;;;;;4.55;2.72;;;;;;;;;;5023012;28;20380;-60
2023/06/28 02:22:55;;;;;;;5.32;2.53;;;;;;;;;;5024876;28;20040;-60
2023/06/28 02:25:22;;;;;;;5.50;2.30;;;;;;;;;;5026656;28;20048;-60
2023/06/28 02:27:48;;;;;;;4.95;2.42;;;;;;;;;;5022798;28;20038;-60
2023/06/28 02:30:14;;;;;;;8.52;2.55;;;;;;;;;;5020957;28;20561;-60
2023/06/28 02:32:40;;;;;;;6.32;2.67;;;;;;;;;;5020445;28;20034;-60
2023/06/28 02:35:06;;;;;;;5.53;2.42;;;;;;;;;;5022399;28;20328;-60
2023/06/28 02:37:32;;;;;;;5.13;2.63;;;;;;;;;;5016456;28;20038;-60
2023/06/28 02:39:58;;;;;;;5.68;2.10;;;;;;;;;;5022888;28;20041;-60
2023/06/28 02:42:25;;;;;;;3.25;1.92;;;;;;;;;;5019721;28;20049;-59
2023/06/28 02:44:51;;;;;;;8.15;2.50;;;;;;;;;;5025483;28;20045;-60
2023/06/28 02:47:17;;;;;;;5.78;1.58;;;;;;;;;;5021566;28;20052;-60
2023/06/28 02:49:43;;;;;;;3.30;2.00;;;;;;;;;;5025686;28;20361;-61
2023/06/28 02:52:10;;;;;;;5.70;2.13;;;;;;;;;;5040020;28;20392;-60
2023/06/28 02:54:36;;;;;;;3.50;2.30;;;;;;;;;;5029768;28;20094;-60
2023/06/28 02:57:02;;;;;;;5.68;1.85;;;;;;;;;;5026919;28;20368;-60
2023/06/28 02:59:28;;;;;;;5.18;1.80;;;;;;;;;;5023541;28;20389;-60
2023/06/28 03:01:54;;;;;;;4.32;1.52;;;;;;;;;;5025518;28;20055;-60
2023/06/28 03:04:20;;;;;;;4.38;2.05;;;;;;;;;;5027502;28;20044;-60
2023/06/28 03:06:50;;;;;;;3.45;1.55;;;;;;;;;;5016887;28;20495;-60
2023/06/28 03:09:16;;;;;;;2.97;1.42;;;;;;;;;;5020919;28;20045;-60
2023/06/28 03:11:42;;;;;;;5.20;2.30;;;;;;;;;;5020338;28;20376;-60
2023/06/28 03:14:08;;;;;;;8.52;1.90;;;;;;;;;;5030981;28;20534;-60
2023/06/28 03:16:34;;;;;;;5.45;2.00;;;;;;;;;;5027116;28;20577;-60
2023/06/28 03:19:01;;;;;;;3.47;1.52;;;;;;;;;;5021810;28;20044;-60
2023/06/28 03:21:27;;;;;;;2.15;1.27;;;;;;;;;;5026305;28;20419;-60
2023/06/28 03:23:53;;;;;;;3.38;1.30;;;;;;;;;;5026205;28;20053;-60
2023/06/28 03:26:19;;;;;;;1.83;1.42;;;;;;;;;;5024584;28;20446;-60
2023/06/28 03:28:45;;;;;;;2.70;1.38;;;;;;;;;;5023501;28;20096;-60
2023/06/28 03:31:11;;;;;;;4.38;1.58;;;;;;;;;;5027613;28;20041;-60
2023/06/28 03:33:37;;;;;;;2.70;1.60;;;;;;;;;;5025405;28;20034;-60
2023/06/28 03:36:04;;;;;;;4.60;1.90;;;;;;;;;;5023578;28;20391;-60
2023/06/28 03:38:30;;;;;;;4.72;1.60;;;;;;;;;;5023173;28;20073;-60
2023/06/28 03:40:56;;;;;;;5.53;1.60;;;;;;;;;;5024113;28;20049;-60
2023/06/28 03:43:22;;;;;;;2.70;1.70;;;;;;;;;;5024498;28;20102;-60
2023/06/28 03:45:48;;;;;;;3.83;1.73;;;;;;;;;;5027849;28;20033;-60
2023/06/28 03:48:14;;;;;;;4.13;1.50;;;;;;;;;;5022885;28;20034;-60
2023/06/28 03:50:40;;;;;;;4.93;1.60;;;;;;;;;;5027318;28;20063;-60
2023/06/28 03:53:07;;;;;;;4.40;1.60;;;;;;;;;;5026482;28;20129;-60
2023/06/28 03:55:33;;;;;;;4.45;1.38;;;;;;;;;;5023205;28;20060;-60
2023/06/28 03:57:59;;;;;;;4.28;1.90;;;;;;;;;;5021143;28;20071;-60
2023/06/28 04:00:25;;;;;;;3.53;1.55;;;;;;;;;;5025440;28;20529;-60
2023/06/28 04:02:51;;;;;;;5.38;1.83;;;;;;;;;;5019273;28;20073;-60
2023/06/28 04:05:17;;;;;;;3.40;1.83;;;;;;;;;;5023335;28;20048;-61
2023/06/28 04:07:44;;;;;;;3.15;1.63;;;;;;;;;;5014826;28;20133;-60
2023/06/28 04:10:10;;;;;;;3.80;1.90;;;;;;;;;;5038604;28;20060;-60
2023/06/28 04:12:36;;;;;;;4.78;1.83;;;;;;;;;;5035085;28;20042;-60
2023/06/28 04:15:02;;;;;;;5.75;2.20;;;;;;;;;;5026230;28;20033;-61
2023/06/28 04:17:29;;;;;;;4.45;2.00;;;;;;;;;;5037693;28;20046;-60
2023/06/28 04:19:55;;;;;;;5.63;2.05;;;;;;;;;;5037822;28;20046;-60
2023/06/28 04:22:21;;;;;;;3.08;2.00;;;;;;;;;;5023186;28;20064;-61
2023/06/28 04:24:47;;;;;;;6.32;1.80;;;;;;;;;;5043018;28;20045;-60
2023/06/28 04:27:14;;;;;;;6.50;1.88;;;;;;;;;;5018641;28;20038;-60
2023/06/28 04:29:40;;;;;;;3.72;1.90;;;;;;;;;;5028010;28;20041;-60
2023/06/28 04:32:21;;;;;;;3.92;1.90;;;;;;;;;;5029479;28;20117;-60
2023/06/28 04:34:49;;;;;;;7.30;2.30;;;;;;;;;;5022745;28;20052;-60
2023/06/28 04:37:15;;;;;;;4.32;1.98;;;;;;;;;;5027679;28;20084;-60
2023/06/28 04:39:43;;;;;;;4.53;1.63;;;;;;;;;;5023083;28;20487;-60
2023/06/28 04:42:09;;;;;;;3.72;1.83;;;;;;;;;;5016654;28;20045;-60
2023/06/28 04:44:36;;;;;;;3.35;1.52;;;;;;;;;;5018084;28;20037;-60
2023/06/28 04:47:04;;;;;;;13.45;2.15;;;19.40;79.90;;;;;;5023063;28;20523;-60
2023/06/28 04:49:30;;;;;;;5.20;2.10;;;18.30;88.60;;;;;;5027317;28;20038;-60
2023/06/28 04:51:56;;;;;;;5.30;2.00;;;18.30;89.30;;;;;;5027755;28;20071;-60
2023/06/28 04:54:22;;;;;;;4.25;2.08;;;18.30;89.40;;;;;;5018962;28;20107;-60
2023/06/28 04:56:47;;;;;;;4.40;2.22;;;18.30;89.70;;;;;;5016839;28;20033;-60
2023/06/28 04:59:13;;;;;;;7.60;2.65;;;18.30;90.00;;;;;;5025219;28;20077;-60
2023/06/28 05:01:41;;;;;;;8.98;2.80;;;18.30;90.10;;;;;;5024478;28;20049;-60
2023/06/28 05:04:07;;;;;;;5.13;2.60;;;18.30;90.20;;;;;;5019037;28;20041;-60
2023/06/28 05:06:35;;;;;;;5.90;2.25;;;18.20;90.40;;;;;;5004891;28;20195;-60
2023/06/28 05:09:02;;;;;;;6.40;2.72;;;18.20;90.60;;;;;;4997312;28;20054;-61
2023/06/28 05:11:28;;;;;;;9.90;3.38;;;18.20;90.80;;;;;;5011215;28;20124;-61
2023/06/28 05:13:53;;;;;;;5.63;2.67;;;18.20;90.90;;;;;;5015421;28;20527;-60
2023/06/28 05:16:19;;;;;;;4.00;2.33;;;18.20;91.00;;;;;;5020543;28;20549;-60
2023/06/28 05:18:46;;;;;;;6.70;2.88;;;18.20;91.00;;;;;;5008833;28;20239;-60
2023/06/28 05:21:12;;;;;;;4.72;2.63;;;18.20;91.50;;;;;;5015406;28;20103;-61
2023/06/28 05:23:38;;;;;;;4.82;2.25;;;18.10;91.30;;;;;;5016138;28;20050;-60
2023/06/28 05:26:04;;;;;;;7.20;3.30;;;18.10;91.40;;;;;;5010228;28;20049;-60
2023/06/28 05:28:29;;;;;;;5.03;2.38;;;18.20;91.40;;;;;;5019525;28;20095;-60
2023/06/28 05:30:55;;;;;;;5.90;2.28;;;18.20;91.50;;;;;;5026271;28;20449;-61
2023/06/28 05:33:21;;;;;;;6.22;2.55;;;18.20;91.50;;;;;;5024731;28;20550;-61
2023/06/28 05:35:47;;;;;;;10.30;2.97;;;18.20;91.50;;;;;;5028240;28;20461;-60
2023/06/28 05:38:13;;;;;;;5.47;2.65;;;18.20;91.50;;;;;;5023447;28;20380;-61
2023/06/28 05:40:39;;;;;;;3.67;2.50;;;18.20;91.60;;;;;;5016202;28;20042;-61
2023/06/28 05:43:05;;;;;;;4.32;2.70;;;18.20;91.70;;;;;;5010329;28;20545;-61
2023/06/28 05:45:31;;;;;;;8.68;3.08;;;18.20;91.80;;;;;;5024504;28;20470;-60
2023/06/28 05:47:59;;;;;;;5.03;3.33;;;18.20;91.80;;;;;;5023286;28;20052;-60
2023/06/28 05:50:25;;;;;;;7.78;3.70;;;18.20;91.90;;;;;;5024821;28;20156;-60
2023/06/28 05:52:51;;;;;;;4.68;2.33;;;18.20;92.00;;;;;;5019847;28;20064;-61
2023/06/28 05:55:17;;;;;;;3.85;2.53;;;18.20;92.10;;;;;;5018624;28;20041;-60
2023/06/28 05:57:45;;;;;;;5.40;3.00;;;18.20;92.20;;;;;;5012428;28;20042;-61
2023/06/28 06:00:11;;;;;;;3.25;2.40;;;18.20;92.30;;;;;;5016549;28;20049;-60
2023/06/28 06:02:37;;;;;;;4.72;2.95;;;18.20;92.40;;;;;;5020082;28;20120;-61
2023/06/28 06:05:04;;;;;;;5.35;3.25;;;18.20;92.60;;;;;;5025082;28;20191;-60
2023/06/28 06:07:30;;;;;;;5.97;2.78;;;18.10;92.70;;;;;;5023279;28;20049;-60
2023/06/28 06:09:56;;;;;;;4.90;2.78;;;18.10;92.70;;;;;;5017845;28;20531;-60
2023/06/28 06:12:24;;;;;;;6.70;2.78;;;18.10;92.80;;;;;;5017985;28;20041;-60
2023/06/28 06:14:50;;;;;;;8.57;3.47;;;18.10;92.90;;;;;;5040516;28;20065;-61
2023/06/28 06:17:19;;;;;;;5.97;2.85;;;18.10;93.00;;;;;;5033647;28;20038;-60
2023/06/28 06:19:45;;;;;;;4.53;2.90;;;18.10;93.10;;;;;;5023911;28;20049;-60
2023/06/28 06:22:11;;;;;;;6.35;3.25;;;18.10;93.20;;;;;;5025252;28;20173;-60
2023/06/28 06:24:37;;;;;;;6.53;3.03;;;18.10;93.30;;;;;;5021519;28;20062;-60
2023/06/28 06:27:03;;;;;;;5.22;3.15;;;18.10;93.40;;;;;;5020181;28;20501;-60
2023/06/28 06:29:30;;;;;;;6.03;3.47;;;18.00;93.30;;;;;;5018077;28;20121;-60
2023/06/28 06:31:55;;;;;;;5.65;3.70;;;18.10;93.50;;;;;;5024456;28;20069;-60
2023/06/28 06:34:21;;;;;;;7.35;3.78;;;18.10;93.60;;;;;;5030802;28;20080;-60
2023/06/28 06:36:47;;;;;;;7.40;3.97;;;18.10;93.60;;;;;;5025838;28;20041;-60
2023/06/28 06:39:13;;;;;;;8.88;3.90;;;18.10;93.60;;;;;;5025477;28;20419;-61
2023/06/28 06:41:38;;;;;;;7.30;3.28;;;18.10;93.60;;;;;;5026163;28;20114;-61
2023/06/28 06:44:04;;;;;;;6.68;3.70;;;18.10;93.60;;;;;;5020551;28;20056;-61
2023/06/28 06:46:30;;;;;;;6.82;3.72;;;18.10;93.70;;;;;;5021616;28;20055;-61
2023/06/28 06:48:56;;;;;;;7.45;3.65;;;18.10;93.70;;;;;;5027713;28;20147;-61
2023/06/28 06:51:22;;;;;;;8.13;4.53;;;;;;;;;;5039502;28;20076;-60
2023/06/28 06:53:48;;;;;;;7.90;3.60;;;;;;;;;;5024235;28;20427;-60
2023/06/28 06:56:22;;;;;;;6.65;3.33;;;18.10;93.70;;;;;;5020946;28;20530;-61
2023/06/28 06:58:48;;;;;;;10.02;3.85;;;18.10;93.90;;;;;;5021582;28;20043;-61
2023/06/28 07:01:14;;;;;;;9.68;3.92;;;18.10;93.90;;;;;;5015708;28;20041;-61
2023/06/28 07:03:41;;;;;;;6.93;3.60;;;;;;;;;;5026177;28;20063;-60
2023/06/28 07:06:07;;;;;;;7.20;3.40;;;;;;;;;;5023476;28;20045;-61
2023/06/28 07:08:35;;;;;;;8.50;4.20;;;;;;;;;;5023570;28;20396;-60
2023/06/28 07:11:02;;;;;;;7.97;3.78;;;;;;;;;;5022871;28;20053;-60
2023/06/28 07:13:28;;;;;;;7.53;3.42;;;;;;;;;;5021520;28;20045;-60
2023/06/28 07:15:54;;;;;;;6.60;3.63;;;;;;;;;;5023704;28;20075;-61
2023/06/28 07:18:20;;;;;;;5.85;3.83;;;;;;;;;;5022025;28;20037;-60
2023/06/28 07:20:46;;;;;;;6.15;4.38;;;;;;;;;;5017613;28;20409;-60
2023/06/28 07:23:13;;;;;;;5.57;3.20;;;;;;;;;;5021755;28;20034;-61
2023/06/28 07:25:39;;;;;;;7.10;3.75;;;;;;;;;;5020007;28;20500;-60
2023/06/28 07:28:05;;;;;;;9.32;4.28;;;;;;;;;;5018582;28;20463;-60
2023/06/28 07:30:50;;;;;;;7.32;3.55;;;;;;;;;;5019833;28;20496;-60
2023/06/28 07:33:16;;;;;;;8.77;4.90;;;;;;;;;;5010347;28;21132;-60
2023/06/28 07:35:42;;;;;;;9.05;3.80;;;;;;;;;;5017939;28;20037;-60
2023/06/28 07:38:08;;;;;;;7.85;3.88;;;;;;;;;;5022689;28;20097;-60
2023/06/28 07:40:35;;;;;;;6.82;3.42;;;;;;;;;;5022783;28;20049;-61
2023/06/28 07:43:02;;;;;;;8.93;3.92;;;;;;;;;;5022318;28;20628;-60
2023/06/28 07:45:29;;;;;;;6.53;3.80;;;;;;;;;;5027364;28;20044;-60
2023/06/28 07:47:54;;;;;;;6.38;3.63;;;18.20;93.90;;;;;;5018025;28;20081;-60
2023/06/28 07:50:22;;;;;;;6.43;3.63;;;18.30;94.80;;;;;;5018580;28;20159;-60
2023/06/28 07:52:48;;;;;;;9.98;3.90;;;18.20;94.90;;;;;;5025953;28;20165;-61
2023/06/28 07:55:14;;;;;;;8.48;4.28;;;18.20;95.00;;;;;;5030495;28;20125;-60
2023/06/28 07:57:39;;;;;;;5.63;4.15;;;18.20;95.10;;;;;;5030520;28;20049;-61
2023/06/28 08:00:06;;;;;;;6.70;3.53;;;18.20;95.10;;;;;;5025996;28;20489;-61
2023/06/28 08:02:31;;;;;;;10.88;4.88;;;18.20;95.20;;;;;;5026224;28;20120;-60
2023/06/28 08:04:58;;;;;;;6.00;3.65;;;18.20;95.20;;;;;;5022633;28;20104;-60
2023/06/28 08:07:24;;;;;;;9.40;4.68;;;18.20;95.30;;;;;;5024433;28;20132;-61
2023/06/28 08:09:50;;;;;;;8.65;4.38;;;18.20;95.30;;;;;;5021568;28;20038;-61
2023/06/28 08:12:16;;;;;;;6.55;3.80;;;18.20;95.40;;;;;;5025199;28;20040;-60
2023/06/28 08:14:42;;;;;;;7.78;4.20;;;18.20;95.40;;;;;;5031710;28;20465;-61
2023/06/28 08:17:07;;;;;;;6.30;3.85;;;18.20;95.50;;;;;;5026714;28;20041;-61
2023/06/28 08:19:33;;;;;;;9.75;5.20;;;18.20;95.50;;;;;;5018015;28;20046;-60
2023/06/28 08:21:59;;;;;;;8.05;4.47;;;18.20;95.60;;;;;;5026953;28;20121;-60
2023/06/28 08:24:25;;;;;;;7.70;4.07;;;18.20;95.60;;;;;;5026181;28;20064;-60
2023/06/28 08:26:51;;;;;;;7.78;3.85;;;;;;;;;;5025164;28;20451;-60
2023/06/28 08:29:17;;;;;;;6.78;4.60;;;;;;;;;;5025012;28;20124;-60
2023/06/28 08:31:43;;;;;;;7.55;3.80;;;;;;;;;;5025109;28;20030;-60
2023/06/28 08:34:09;;;;;;;7.57;4.28;;;;;;;;;;5026256;28;20045;-61
2023/06/28 08:36:35;;;;;;;8.20;4.55;;;;;;;;;;5022751;28;20041;-60
2023/06/28 08:39:02;;;;;;;8.20;4.93;;;;;;;;;;5027428;28;20073;-60
2023/06/28 08:41:28;;;;;;;9.00;4.72;;;;;;;;;;5021628;28;20120;-61
2023/06/28 08:43:54;;;;;;;8.85;4.35;;;;;;;;;;5040833;28;20041;-60
2023/06/28 08:46:22;;;;;;;6.90;4.47;;;;;;;;;;5031012;28;20081;-61
2023/06/28 08:48:49;;;;;;;6.28;4.63;;;;;;;;;;5032330;28;20542;-60
2023/06/28 08:51:15;;;;;;;10.48;4.90;;;;;;;;;;5020656;28;20037;-60
2023/06/28 08:53:44;;;;;;;10.43;4.47;;;;;;;;;;5023212;28;20038;-61
2023/06/28 08:56:10;;;;;;;12.27;5.07;;;;;;;;;;5027215;28;20033;-60
2023/06/28 08:58:37;;;;;;;6.80;4.05;;;;;;;;;;5028119;28;20041;-60
2023/06/28 09:01:03;;;;;;;9.35;4.70;;;;;;;;;;5027697;28;20049;-60
2023/06/28 09:03:30;;;;;;;7.82;4.78;;;;;;;;;;5025168;28;20131;-61
2023/06/28 09:05:56;;;;;;;6.68;4.43;;;;;;;;;;5042174;28;20041;-60
2023/06/28 09:08:23;;;;;;;7.80;4.45;;;;;;;;;;5042267;28;20093;-61
2023/06/28 09:10:50;;;;;;;9.43;4.70;;;;;;;;;;5027260;28;20206;-60
2023/06/28 09:13:19;;;;;;;7.10;5.00;;;;;;;;;;5031877;28;20399;-61
2023/06/28 09:15:46;;;;;;;8.85;4.90;;;;;;;;;;5030098;28;20047;-61
2023/06/28 09:18:12;;;;;;;6.47;3.75;;;;;;;;;;5028107;28;20206;-61
2023/06/28 09:20:47;;;;;;;12.98;5.05;;;;;;;;;;5025001;28;20528;-61
2023/06/28 09:23:14;;;;;;;7.57;4.95;;;;;;;;;;5025559;28;20661;-61
2023/06/28 09:25:42;;;;;;;8.75;4.85;;;;;;;;;;5039126;28;20055;-60
2023/06/28 09:28:08;;;;;;;8.50;5.78;;;;;;;;;;5022328;28;20045;-60
2023/06/28 09:30:36;;;;;;;8.18;5.10;;;;;;;;;;5026139;28;20056;-61
2023/06/28 09:33:04;;;;;;;8.52;5.32;;;;;;;;;;5018511;28;20033;-61
2023/06/28 09:35:30;;;;;;;6.13;4.95;;;;;;;;;;5023707;28;20629;-61
2023/06/28 09:38:04;;;;;;;6.47;4.60;;;;;;;;;;5023918;28;20041;-61
2023/06/28 09:40:34;;;;;;;5.65;4.32;;;;;;;;;;5024276;28;20529;-61
2023/06/28 09:43:00;;;;;;;6.22;4.93;;;;;;;;;;5027007;28;20282;-61
2023/06/28 09:45:27;;;;;;;6.53;5.15;;;;;;;;;;5029289;28;20180;-61
2023/06/28 09:48:01;;;;;;;8.43;4.30;;;;;;;;;;5026936;28;20041;-61
2023/06/28 09:50:56;;;;;;;8.50;3.92;;;;;;;;;;5027943;28;20045;-61
2023/06/28 09:53:25;;;;;;;7.13;5.07;;;;;;;;;;5025882;28;20111;-60
2023/06/28 09:55:52;;;;;;;6.63;4.40;;;;;;;;;;5021402;28;20314;-60
2023/06/28 09:58:19;;;;;;;7.32;4.88;;;;;;;;;;5027885;28;20060;-60
2023/06/28 10:00:47;;;;;;;7.75;4.43;;;;;;;;;;5028058;28;20076;-61
2023/06/28 10:03:13;;;;;;;12.82;5.13;;;;;;;;;;5029018;28;20041;-61
2023/06/28 10:05:41;;;;;;;12.25;5.53;;;;;;;;;;5038024;28;20115;-61
2023/06/28 10:08:09;;;;;;;7.18;5.35;;;;;;;;;;5027630;28;20049;-60
2023/06/28 10:10:36;;;;;;;5.80;4.55;;;;;;;;;;5023208;28;20077;-60
2023/06/28 10:13:10;;;;;;;8.27;5.53;;;;;;;;;;5026542;28;20502;-61
2023/06/28 10:15:56;;;;;;;7.18;5.15;;;;;;;;;;5038944;28;20103;-61
2023/06/28 10:18:24;;;;;;;6.40;4.68;;;;;;;;;;5015428;28;20053;-60
2023/06/28 10:20:51;;;;;;;7.00;5.32;;;;;;;;;;5026253;28;20052;-60
2023/06/28 10:23:17;;;;;;;10.32;6.22;;;;;;;;;;5020079;28;20525;-61
2023/06/28 10:25:45;;;;;;;6.82;5.32;;;18.20;95.70;;;;;;5019960;28;20069;-61
2023/06/28 10:28:12;;;;;;;8.85;5.90;;;18.80;98.80;;;;;;5019572;28;20087;-60
2023/06/28 10:30:42;;;;;;;10.10;5.63;;;18.80;98.90;;;;;;5019396;28;20622;-60
2023/06/28 10:33:13;;;;;;;8.82;5.72;;;18.80;98.90;;;;;;5017249;28;20107;-61
2023/06/28 10:35:42;;;;;;;9.70;6.18;;;18.80;99.00;;;;;;5025125;28;20045;-60
2023/06/28 10:38:08;;;;;;;11.55;7.40;;;18.80;99.00;;;;;;5021468;28;20048;-61
2023/06/28 10:40:35;;;;;;;10.02;5.68;;;18.80;99.20;;;;;;5025235;28;20140;-61
2023/06/28 10:43:01;;;;;;;8.68;6.30;;;18.80;99.20;;;;;;5040436;28;20037;-61
2023/06/28 10:45:33;;;;;;;11.07;6.50;;;18.80;99.20;;;;;;5028188;28;20045;-61
2023/06/28 10:47:59;;;;;;;7.95;6.32;;;18.80;99.30;;;;;;5027357;28;20048;-60
2023/06/28 10:50:25;;;;;;;8.13;6.25;;;18.80;99.30;;;;;;5029754;28;20128;-61
2023/06/28 10:52:56;;;;;;;7.90;6.60;;;18.80;99.40;;;;;;5027444;28;20363;-61
2023/06/28 10:55:31;;;;;;;9.10;6.20;;;18.90;99.60;;;;;;5027294;28;20091;-60
2023/06/28 10:58:05;;;;;;;10.52;7.75;;;18.90;99.60;;;;;;5006000;28;20045;-60
2023/06/28 11:00:39;;;;;;;7.50;5.75;;;18.90;99.90;;;;;;5020481;28;20214;-60
2023/06/28 11:03:05;;;;;;;11.88;5.60;;;18.90;99.80;;;;;;5022870;28;20175;-61
2023/06/28 11:05:52;;;;;;;7.75;6.72;;;;;;;;;;5020716;28;20037;-61
2023/06/28 11:08:18;;;;;;;7.93;5.88;;;;;;;;;;5020866;28;20065;-61
2023/06/28 11:10:45;;;;;;;7.15;5.80;;;;;;;;;;5021052;28;20045;-60
2023/06/28 11:13:15;;;;;;;7.95;6.78;;;;;;;;;;5025313;28;20406;-60
2023/06/28 11:15:43;;;;;;;8.98;6.47;;;;;;;;;;5021545;28;20468;-60
2023/06/28 11:18:16;;;;;;;9.60;6.18;;;;;;;;;;5019890;28;20073;-60
2023/06/28 11:21:02;;;;;;;7.70;6.00;;;;;;;;;;5014326;28;20448;-61
2023/06/28 11:23:41;;;;;;;8.93;6.15;;;;;;;;;;5019273;28;20095;-61
2023/06/28 11:26:15;;;;;;;7.03;5.43;;;;;;;;;;5019629;28;20423;-60
2023/06/28 11:28:51;;;;;;;9.18;5.85;;;;;;;;;;5010985;28;20100;-61
2023/06/28 11:31:18;;;;;;;7.95;6.15;;;;;;;;;;5014133;28;20234;-60
2023/06/28 11:33:45;;;;;;;11.32;6.20;;;;;;;;;;5018780;28;20069;-60
2023/06/28 11:36:12;;;;;;;8.80;6.93;;;;;;;;;;5019121;28;20496;-61
2023/06/28 11:38:39;;;;;;;9.00;6.15;;;;;;;;;;5019575;28;20045;-60
2023/06/28 11:41:06;;;;;;;6.85;6.15;;;;;;;;;;5017646;28;20299;-61
2023/06/28 11:43:32;;;;;;;8.68;6.47;;;;;;;;;;5021851;28;20055;-60
2023/06/28 11:45:59;;;;;;;11.38;8.23;;;;;;;;;;5018628;28;20494;-60
2023/06/28 11:48:25;;;;;;;9.65;7.55;;;;;;;;;;5021801;28;20080;-61
2023/06/28 11:50:58;;;;;;;10.45;7.70;;;;;;;;;;5014715;28;20092;-61
2023/06/28 11:53:25;;;;;;;9.38;8.10;;;;;;;;;;5017096;28;20533;-60
2023/06/28 11:55:53;;;;;;;13.50;9.15;;;;;;;;;;5018355;28;20038;-61
2023/06/28 11:58:33;;;;;;;15.32;9.57;;;;;;;;;;5022513;28;20049;-60
2023/06/28 12:01:00;;;;;;;13.13;9.75;;;;;;;;;;5027253;28;20136;-61
2023/06/28 12:03:36;;;;;;;14.07;10.10;;;;;;;;;;5024579;28;20048;-61
2023/06/28 12:06:06;;;;;;;12.43;10.18;;;;;;;;;;5018720;28;20590;-60
2023/06/28 12:08:37;;;;;;;18.17;11.55;;;;;;;;;;5020432;28;20549;-61
2023/06/28 12:11:11;;;;;;;16.17;11.73;;;;;;;;;;5019076;28;20334;-61
2023/06/28 12:13:37;;;;;;;17.55;12.32;;;;;;;;;;5020415;28;20041;-61
2023/06/28 12:16:16;;;;;;;15.65;12.43;;;;;;;;;;5014226;28;20037;-60
2023/06/28 12:18:53;;;;;;;16.10;12.15;;;;;;;;;;5022876;28;20564;-61
2023/06/28 12:21:21;;;;;;;16.08;11.98;;;;;;;;;;5022476;28;20518;-61
2023/06/28 12:23:47;;;;;;;15.77;12.15;;;;;;;;;;5013993;28;20129;-61
2023/06/28 12:26:13;;;;;;;18.27;12.93;;;;;;;;;;5020551;28;20038;-61
2023/06/28 12:28:39;;;;;;;19.48;12.88;;;;;;;;;;5022770;28;20132;-61
2023/06/28 12:31:05;;;;;;;17.98;14.55;;;;;;;;;;5017261;28;20047;-61
2023/06/28 12:33:35;;;;;;;15.95;13.02;;;;;;;;;;5019917;28;20062;-61
2023/06/28 12:36:01;;;;;;;16.85;13.20;;;;;;;;;;5018864;28;20068;-60
2023/06/28 12:38:28;;;;;;;20.42;12.70;;;;;;;;;;5029304;28;20759;-61
2023/06/28 12:40:54;;;;;;;16.83;12.60;;;;;;;;;;5034574;28;20080;-61
2023/06/28 12:43:25;;;;;;;19.55;15.63;;;;;;;;;;5023404;28;20505;-61
2023/06/28 12:45:53;;;;;;;18.83;14.52;;;;;;;;;;5024462;28;20510;-61
2023/06/28 12:48:22;;;;;;;23.90;16.58;;;18.90;99.80;;;;;;5024907;28;20049;-61
2023/06/28 12:50:55;;;;;;;20.75;16.38;;;19.30;99.90;;;;;;5012320;28;20129;-60
2023/06/28 12:53:21;;;;;;;20.25;16.17;;;19.30;99.90;;;;;;5016867;28;20153;-61
2023/06/28 12:55:47;;;;;;;21.10;15.40;;;;;;;;;;5024373;28;20041;-61
2023/06/28 12:58:13;;;;;;;18.20;13.75;;;;;;;;;;5005035;28;20079;-61
2023/06/28 13:00:44;;;;;;;18.85;15.60;;;;;;;;;;5020958;28;20132;-61
2023/06/28 13:03:12;;;;;;;19.65;14.88;;;;;;;;;;5022368;28;20070;-61
2023/06/28 13:05:39;;;;;;;21.05;14.07;;;;;;;;;;5024144;28;20041;-61
2023/06/28 13:08:05;;;;;;;20.35;16.92;;;;;;;;;;5023801;28;20049;-61
2023/06/28 13:10:31;;;;;;;25.13;18.02;;;;;;;;;;5025958;28;20081;-61
2023/06/28 13:12:58;;;;;;;24.02;16.58;;;;;;;;;;5026209;28;20065;-61
2023/06/28 13:15:24;;;;;;;22.85;14.45;;;;;;;;;;5024478;28;20417;-61
2023/06/28 13:17:50;;;;;;;23.48;16.30;;;;;;;;;;5026118;28;20330;-60
2023/06/28 13:20:16;;;;;;;21.83;15.75;;;;;;;;;;5027790;28;20064;-61
2023/06/28 13:22:42;;;;;;;23.08;16.48;;;;;;;;;;5020971;28;20083;-61
2023/06/28 13:25:08;;;;;;;22.92;17.52;;;;;;;;;;5019547;28;20049;-61
2023/06/28 13:27:34;;;;;;;23.85;16.92;;;;;;;;;;5026180;28;20057;-61
2023/06/28 13:30:01;;;;;;;28.10;18.33;;;;;;;;;;5023286;28;20046;-61
2023/06/28 13:32:27;;;;;;;25.92;17.08;;;;;;;;;;5027836;28;20403;-61
2023/06/28 13:34:53;;;;;;;24.65;18.15;;;;;;;;;;5025817;28;20108;-61
2023/06/28 13:37:19;;;;;;;24.40;17.70;;;;;;;;;;5024682;28;20113;-61
2023/06/28 13:39:45;;;;;;;29.67;17.92;;;;;;;;;;5020453;28;20038;-61
2023/06/28 13:42:11;;;;;;;29.98;18.35;;;;;;;;;;5023051;28;20459;-61
2023/06/28 13:44:38;;;;;;;21.25;16.80;;;;;;;;;;5027891;28;20456;-61
2023/06/28 13:47:04;;;;;;;20.23;15.48;;;;;;;;;;5024241;28;20102;-60
2023/06/28 13:49:32;;;;;;;26.38;18.50;;;;;;;;;;5026619;28;20048;-61
2023/06/28 13:51:58;;;;;;;25.23;16.98;;;;;;;;;;5039747;28;20049;-61
2023/06/28 13:54:24;;;;;;;25.50;19.00;;;;;;;;;;5028260;28;20056;-60
2023/06/28 13:56:50;;;;;;;26.98;19.33;;;19.30;99.90;;;;;;5026756;28;20420;-61
2023/06/28 13:59:16;;;;;;;26.23;18.50;;;19.70;99.90;;;;;;5027151;28;20048;-61
2023/06/28 14:01:42;;;;;;;26.73;18.80;;;19.70;99.90;;;;;;5029052;28;20578;-61
2023/06/28 14:04:08;;;;;;;25.80;18.35;;;19.70;99.90;;;;;;5025520;28;20045;-61